sensor_id;sensor_type;location;lat;lon;timestamp;P1;durP1;ratioP1;P2;durP2;ratioP2
64197;SDS011;50512;53.666;9.700;2024-02-21T00:01:14;133.13;;;32.60;;
64197;SDS011;50512;53.666;9.700;2024-02-21T00:03:41;123.38;;;32.50;;
64197;SDS011;50512;53.666;9.700;2024-02-21T00:06:07;129.80;;;29.33;;
64197;SDS011;50512;53.666;9.700;2024-02-21T00:08:33;124.28;;;30.85;;
64197;SDS011;50512;53.666;9.700;2024-02-21T00:11:01;121.45;;;30.75;;
64197;SDS011;50512;53.666;9.700;2024-02-21T00:13:28;128.25;;;30.33;;
64197;SDS011;50512;53.666;9.700;2024-02-21T00:15:54;128.52;;;31.70;;
64197;SDS011;50512;53.666;9.700;2024-02-21T00:18:21;109.38;;;29.95;;
64197;SDS011;50512;53.666;9.700;2024-02-21T00:20:47;110.88;;;25.10;;
64197;SDS011;50512;53.666;9.700;2024-02-21T00:23:14;127.18;;;32.63;;
64197;SDS011;50512;53.666;9.700;2024-02-21T00:25:40;118.22;;;29.63;;
64197;SDS011;50512;53.666;9.700;2024-02-21T00:28:08;130.55;;;32.17;;
64197;SDS011;50512;53.666;9.700;2024-02-21T00:30:34;128.32;;;30.58;;
64197;SDS011;50512;53.666;9.700;2024-02-21T00:33:03;130.18;;;29.55;;
64197;SDS011;50512;53.666;9.700;2024-02-21T00:35:30;137.43;;;29.77;;
64197;SDS011;50512;53.666;9.700;2024-02-21T00:37:56;127.28;;;31.42;;
64197;SDS011;50512;53.666;9.700;2024-02-21T00:40:24;132.95;;;29.42;;
64197;SDS011;50512;53.666;9.700;2024-02-21T00:42:51;110.25;;;28.88;;
64197;SDS011;50512;53.666;9.700;2024-02-21T00:45:18;122.80;;;31.55;;
64197;SDS011;50512;53.666;9.700;2024-02-21T00:47:45;123.07;;;32.85;;
64197;SDS011;50512;53.666;9.700;2024-02-21T00:50:11;107.03;;;29.60;;
64197;SDS011;50512;53.666;9.700;2024-02-21T00:52:38;127.15;;;31.50;;
64197;SDS011;50512;53.666;9.700;2024-02-21T00:55:05;120.28;;;28.52;;
64197;SDS011;50512;53.666;9.700;2024-02-21T00:57:32;120.68;;;30.08;;
64197;SDS011;50512;53.666;9.700;2024-02-21T00:59:58;123.30;;;31.08;;
64197;SDS011;50512;53.666;9.700;2024-02-21T01:02:26;116.45;;;29.75;;
64197;SDS011;50512;53.666;9.700;2024-02-21T01:04:53;121.72;;;31.80;;
64197;SDS011;50512;53.666;9.700;2024-02-21T01:07:19;127.32;;;31.85;;
64197;SDS011;50512;53.666;9.700;2024-02-21T01:09:45;118.20;;;27.40;;
64197;SDS011;50512;53.666;9.700;2024-02-21T01:12:12;133.95;;;31.23;;
64197;SDS011;50512;53.666;9.700;2024-02-21T01:14:38;132.93;;;31.70;;
64197;SDS011;50512;53.666;9.700;2024-02-21T01:17:05;123.18;;;31.42;;
64197;SDS011;50512;53.666;9.700;2024-02-21T01:19:33;103.88;;;24.05;;
64197;SDS011;50512;53.666;9.700;2024-02-21T01:22:00;125.30;;;31.75;;
64197;SDS011;50512;53.666;9.700;2024-02-21T01:24:26;132.95;;;33.75;;
64197;SDS011;50512;53.666;9.700;2024-02-21T01:26:52;130.77;;;29.90;;
64197;SDS011;50512;53.666;9.700;2024-02-21T01:29:19;122.03;;;32.15;;
64197;SDS011;50512;53.666;9.700;2024-02-21T01:31:45;123.97;;;29.95;;
64197;SDS011;50512;53.666;9.700;2024-02-21T01:34:12;111.75;;;30.27;;
64197;SDS011;50512;53.666;9.700;2024-02-21T01:36:40;130.20;;;30.83;;
64197;SDS011;50512;53.666;9.700;2024-02-21T01:39:07;134.13;;;32.28;;
64197;SDS011;50512;53.666;9.700;2024-02-21T01:41:33;107.45;;;29.33;;
64197;SDS011;50512;53.666;9.700;2024-02-21T01:44:00;140.48;;;35.70;;
64197;SDS011;50512;53.666;9.700;2024-02-21T01:46:26;132.55;;;33.65;;
64197;SDS011;50512;53.666;9.700;2024-02-21T01:48:53;125.55;;;33.53;;
64197;SDS011;50512;53.666;9.700;2024-02-21T01:51:20;107.80;;;26.30;;
64197;SDS011;50512;53.666;9.700;2024-02-21T01:53:48;132.88;;;29.67;;
64197;SDS011;50512;53.666;9.700;2024-02-21T01:56:16;133.18;;;33.05;;
64197;SDS011;50512;53.666;9.700;2024-02-21T01:58:43;166.52;;;37.95;;
64197;SDS011;50512;53.666;9.700;2024-02-21T02:01:11;144.55;;;34.53;;
64197;SDS011;50512;53.666;9.700;2024-02-21T02:03:38;153.45;;;36.25;;
64197;SDS011;50512;53.666;9.700;2024-02-21T02:06:04;112.25;;;26.58;;
64197;SDS011;50512;53.666;9.700;2024-02-21T02:08:31;152.30;;;35.97;;
64197;SDS011;50512;53.666;9.700;2024-02-21T02:11:00;150.25;;;34.78;;
64197;SDS011;50512;53.666;9.700;2024-02-21T02:13:27;159.38;;;36.35;;
64197;SDS011;50512;53.666;9.700;2024-02-21T02:15:53;122.82;;;32.15;;
64197;SDS011;50512;53.666;9.700;2024-02-21T02:18:20;137.60;;;32.67;;
64197;SDS011;50512;53.666;9.700;2024-02-21T02:20:47;155.35;;;35.78;;
64197;SDS011;50512;53.666;9.700;2024-02-21T02:23:18;158.13;;;38.42;;
64197;SDS011;50512;53.666;9.700;2024-02-21T02:25:46;150.55;;;35.72;;
64197;SDS011;50512;53.666;9.700;2024-02-21T02:28:14;147.75;;;36.00;;
64197;SDS011;50512;53.666;9.700;2024-02-21T02:30:39;127.93;;;30.75;;
64197;SDS011;50512;53.666;9.700;2024-02-21T02:33:06;153.38;;;36.33;;
64197;SDS011;50512;53.666;9.700;2024-02-21T02:35:32;142.18;;;35.75;;
64197;SDS011;50512;53.666;9.700;2024-02-21T02:38:00;125.47;;;29.67;;
64197;SDS011;50512;53.666;9.700;2024-02-21T02:40:28;130.93;;;33.45;;
64197;SDS011;50512;53.666;9.700;2024-02-21T02:42:54;145.07;;;32.70;;
64197;SDS011;50512;53.666;9.700;2024-02-21T02:45:21;132.80;;;34.28;;
64197;SDS011;50512;53.666;9.700;2024-02-21T02:47:51;134.48;;;34.47;;
64197;SDS011;50512;53.666;9.700;2024-02-21T02:50:18;131.25;;;36.45;;
64197;SDS011;50512;53.666;9.700;2024-02-21T02:52:45;139.57;;;34.47;;
64197;SDS011;50512;53.666;9.700;2024-02-21T02:55:12;137.93;;;34.58;;
64197;SDS011;50512;53.666;9.700;2024-02-21T02:57:39;132.40;;;34.60;;
64197;SDS011;50512;53.666;9.700;2024-02-21T03:00:07;130.43;;;34.97;;
64197;SDS011;50512;53.666;9.700;2024-02-21T03:02:34;149.50;;;38.78;;
64197;SDS011;50512;53.666;9.700;2024-02-21T03:05:01;131.38;;;36.45;;
64197;SDS011;50512;53.666;9.700;2024-02-21T03:07:38;116.78;;;34.10;;
64197;SDS011;50512;53.666;9.700;2024-02-21T03:10:04;117.85;;;32.40;;
64197;SDS011;50512;53.666;9.700;2024-02-21T03:12:31;114.65;;;31.98;;
64197;SDS011;50512;53.666;9.700;2024-02-21T03:14:59;116.50;;;33.55;;
64197;SDS011;50512;53.666;9.700;2024-02-21T03:17:25;109.63;;;29.02;;
64197;SDS011;50512;53.666;9.700;2024-02-21T03:19:53;126.93;;;36.47;;
64197;SDS011;50512;53.666;9.700;2024-02-21T03:22:20;131.70;;;38.63;;
64197;SDS011;50512;53.666;9.700;2024-02-21T03:24:46;118.60;;;32.80;;
64197;SDS011;50512;53.666;9.700;2024-02-21T03:27:13;119.05;;;34.15;;
64197;SDS011;50512;53.666;9.700;2024-02-21T03:29:39;102.90;;;29.60;;
64197;SDS011;50512;53.666;9.700;2024-02-21T03:32:07;130.88;;;34.00;;
64197;SDS011;50512;53.666;9.700;2024-02-21T03:34:34;104.50;;;30.27;;
64197;SDS011;50512;53.666;9.700;2024-02-21T03:37:01;97.35;;;30.80;;
64197;SDS011;50512;53.666;9.700;2024-02-21T03:39:30;103.28;;;30.45;;
64197;SDS011;50512;53.666;9.700;2024-02-21T03:41:57;110.75;;;29.55;;
64197;SDS011;50512;53.666;9.700;2024-02-21T03:44:25;103.47;;;29.33;;
64197;SDS011;50512;53.666;9.700;2024-02-21T03:46:52;98.95;;;25.50;;
64197;SDS011;50512;53.666;9.700;2024-02-21T03:49:19;106.40;;;29.00;;
64197;SDS011;50512;53.666;9.700;2024-02-21T03:51:46;99.57;;;28.27;;
64197;SDS011;50512;53.666;9.700;2024-02-21T03:54:12;108.28;;;30.50;;
64197;SDS011;50512;53.666;9.700;2024-02-21T03:56:39;96.78;;;28.13;;
64197;SDS011;50512;53.666;9.700;2024-02-21T03:59:06;105.03;;;32.30;;
64197;SDS011;50512;53.666;9.700;2024-02-21T04:01:32;98.53;;;27.65;;
64197;SDS011;50512;53.666;9.700;2024-02-21T04:03:59;96.90;;;28.60;;
64197;SDS011;50512;53.666;9.700;2024-02-21T04:06:27;100.45;;;29.65;;
64197;SDS011;50512;53.666;9.700;2024-02-21T04:08:53;92.22;;;29.35;;
64197;SDS011;50512;53.666;9.700;2024-02-21T04:11:20;95.63;;;29.35;;
64197;SDS011;50512;53.666;9.700;2024-02-21T04:13:46;101.65;;;28.58;;
64197;SDS011;50512;53.666;9.700;2024-02-21T04:16:15;97.85;;;29.13;;
64197;SDS011;50512;53.666;9.700;2024-02-21T04:18:41;82.28;;;25.60;;
64197;SDS011;50512;53.666;9.700;2024-02-21T04:21:08;98.13;;;31.15;;
64197;SDS011;50512;53.666;9.700;2024-02-21T04:23:36;106.05;;;30.00;;
64197;SDS011;50512;53.666;9.700;2024-02-21T04:26:02;114.47;;;29.33;;
64197;SDS011;50512;53.666;9.700;2024-02-21T04:28:29;91.43;;;24.63;;
64197;SDS011;50512;53.666;9.700;2024-02-21T04:30:55;92.80;;;24.23;;
64197;SDS011;50512;53.666;9.700;2024-02-21T04:33:22;98.07;;;26.15;;
64197;SDS011;50512;53.666;9.700;2024-02-21T04:35:48;95.15;;;26.63;;
64197;SDS011;50512;53.666;9.700;2024-02-21T04:38:15;91.30;;;25.83;;
64197;SDS011;50512;53.666;9.700;2024-02-21T04:40:42;92.40;;;26.00;;
64197;SDS011;50512;53.666;9.700;2024-02-21T04:43:09;95.15;;;24.70;;
64197;SDS011;50512;53.666;9.700;2024-02-21T04:45:35;102.03;;;28.48;;
64197;SDS011;50512;53.666;9.700;2024-02-21T04:48:02;92.97;;;25.88;;
64197;SDS011;50512;53.666;9.700;2024-02-21T04:50:29;98.63;;;30.73;;
64197;SDS011;50512;53.666;9.700;2024-02-21T04:52:55;94.25;;;27.85;;
64197;SDS011;50512;53.666;9.700;2024-02-21T04:55:22;83.63;;;23.38;;
64197;SDS011;50512;53.666;9.700;2024-02-21T04:57:48;88.03;;;24.48;;
64197;SDS011;50512;53.666;9.700;2024-02-21T05:00:15;89.40;;;22.35;;
64197;SDS011;50512;53.666;9.700;2024-02-21T05:02:42;88.35;;;23.13;;
64197;SDS011;50512;53.666;9.700;2024-02-21T05:05:08;84.90;;;23.63;;
64197;SDS011;50512;53.666;9.700;2024-02-21T05:07:35;80.88;;;18.75;;
64197;SDS011;50512;53.666;9.700;2024-02-21T05:10:01;71.47;;;21.08;;
64197;SDS011;50512;53.666;9.700;2024-02-21T05:12:28;73.93;;;20.20;;
64197;SDS011;50512;53.666;9.700;2024-02-21T05:14:56;70.00;;;19.38;;
64197;SDS011;50512;53.666;9.700;2024-02-21T05:17:22;66.88;;;18.27;;
64197;SDS011;50512;53.666;9.700;2024-02-21T05:19:49;67.78;;;19.83;;
64197;SDS011;50512;53.666;9.700;2024-02-21T05:22:15;67.38;;;20.27;;
64197;SDS011;50512;53.666;9.700;2024-02-21T05:24:42;60.42;;;17.52;;
64197;SDS011;50512;53.666;9.700;2024-02-21T05:27:08;66.57;;;18.27;;
64197;SDS011;50512;53.666;9.700;2024-02-21T05:29:35;67.90;;;20.02;;
64197;SDS011;50512;53.666;9.700;2024-02-21T05:32:03;67.15;;;18.83;;
64197;SDS011;50512;53.666;9.700;2024-02-21T05:34:29;63.30;;;17.65;;
64197;SDS011;50512;53.666;9.700;2024-02-21T05:36:56;64.25;;;18.33;;
64197;SDS011;50512;53.666;9.700;2024-02-21T05:39:24;69.32;;;17.67;;
64197;SDS011;50512;53.666;9.700;2024-02-21T05:41:51;55.83;;;16.17;;
64197;SDS011;50512;53.666;9.700;2024-02-21T05:44:18;59.75;;;15.45;;
64197;SDS011;50512;53.666;9.700;2024-02-21T05:46:44;59.55;;;16.48;;
64197;SDS011;50512;53.666;9.700;2024-02-21T05:49:13;60.78;;;17.05;;
64197;SDS011;50512;53.666;9.700;2024-02-21T05:51:40;50.08;;;15.55;;
64197;SDS011;50512;53.666;9.700;2024-02-21T05:54:06;53.65;;;13.88;;
64197;SDS011;50512;53.666;9.700;2024-02-21T05:56:33;54.53;;;15.27;;
64197;SDS011;50512;53.666;9.700;2024-02-21T05:58:59;48.20;;;14.32;;
64197;SDS011;50512;53.666;9.700;2024-02-21T06:01:26;46.83;;;13.48;;
64197;SDS011;50512;53.666;9.700;2024-02-21T06:03:53;41.83;;;12.48;;
64197;SDS011;50512;53.666;9.700;2024-02-21T06:06:21;44.30;;;13.30;;
64197;SDS011;50512;53.666;9.700;2024-02-21T06:08:48;40.67;;;10.52;;
64197;SDS011;50512;53.666;9.700;2024-02-21T06:11:14;40.15;;;11.23;;
64197;SDS011;50512;53.666;9.700;2024-02-21T06:13:41;35.13;;;9.95;;
64197;SDS011;50512;53.666;9.700;2024-02-21T06:16:07;35.42;;;9.50;;
64197;SDS011;50512;53.666;9.700;2024-02-21T06:18:35;31.88;;;9.18;;
64197;SDS011;50512;53.666;9.700;2024-02-21T06:21:01;27.20;;;7.95;;
64197;SDS011;50512;53.666;9.700;2024-02-21T06:23:29;30.45;;;8.98;;
64197;SDS011;50512;53.666;9.700;2024-02-21T06:25:56;24.58;;;7.85;;
64197;SDS011;50512;53.666;9.700;2024-02-21T06:28:22;28.42;;;8.20;;
64197;SDS011;50512;53.666;9.700;2024-02-21T06:30:48;31.58;;;9.18;;
64197;SDS011;50512;53.666;9.700;2024-02-21T06:33:15;31.10;;;9.32;;
64197;SDS011;50512;53.666;9.700;2024-02-21T06:35:41;29.50;;;9.02;;
64197;SDS011;50512;53.666;9.700;2024-02-21T06:38:10;30.10;;;9.40;;
64197;SDS011;50512;53.666;9.700;2024-02-21T06:40:38;37.08;;;11.52;;
64197;SDS011;50512;53.666;9.700;2024-02-21T06:43:05;38.58;;;10.02;;
64197;SDS011;50512;53.666;9.700;2024-02-21T06:45:32;37.20;;;10.88;;
64197;SDS011;50512;53.666;9.700;2024-02-21T06:47:58;37.13;;;11.68;;
64197;SDS011;50512;53.666;9.700;2024-02-21T06:50:25;37.17;;;10.98;;
64197;SDS011;50512;53.666;9.700;2024-02-21T06:52:51;36.33;;;10.07;;
64197;SDS011;50512;53.666;9.700;2024-02-21T06:55:18;39.25;;;11.98;;
64197;SDS011;50512;53.666;9.700;2024-02-21T06:57:45;33.90;;;8.82;;
64197;SDS011;50512;53.666;9.700;2024-02-21T07:00:13;27.95;;;8.35;;
64197;SDS011;50512;53.666;9.700;2024-02-21T07:02:41;30.55;;;9.40;;
64197;SDS011;50512;53.666;9.700;2024-02-21T07:05:07;25.83;;;8.73;;
64197;SDS011;50512;53.666;9.700;2024-02-21T07:07:34;31.95;;;9.45;;
64197;SDS011;50512;53.666;9.700;2024-02-21T07:10:01;31.80;;;9.55;;
64197;SDS011;50512;53.666;9.700;2024-02-21T07:12:27;37.75;;;10.10;;
64197;SDS011;50512;53.666;9.700;2024-02-21T07:14:55;35.47;;;10.07;;
64197;SDS011;50512;53.666;9.700;2024-02-21T07:17:21;36.58;;;10.95;;
64197;SDS011;50512;53.666;9.700;2024-02-21T07:19:48;42.28;;;11.32;;
64197;SDS011;50512;53.666;9.700;2024-02-21T07:22:14;48.22;;;11.68;;
64197;SDS011;50512;53.666;9.700;2024-02-21T07:24:41;36.67;;;10.07;;
64197;SDS011;50512;53.666;9.700;2024-02-21T07:27:07;29.25;;;8.85;;
64197;SDS011;50512;53.666;9.700;2024-02-21T07:29:33;32.42;;;9.95;;
64197;SDS011;50512;53.666;9.700;2024-02-21T07:32:02;44.70;;;12.27;;
64197;SDS011;50512;53.666;9.700;2024-02-21T07:34:28;47.65;;;11.48;;
64197;SDS011;50512;53.666;9.700;2024-02-21T07:36:55;46.85;;;11.07;;
64197;SDS011;50512;53.666;9.700;2024-02-21T07:39:21;39.85;;;10.73;;
64197;SDS011;50512;53.666;9.700;2024-02-21T07:41:48;38.13;;;10.63;;
64197;SDS011;50512;53.666;9.700;2024-02-21T07:44:15;43.70;;;10.25;;
64197;SDS011;50512;53.666;9.700;2024-02-21T07:46:41;41.42;;;9.45;;
64197;SDS011;50512;53.666;9.700;2024-02-21T07:49:09;41.53;;;9.80;;
64197;SDS011;50512;53.666;9.700;2024-02-21T07:51:35;49.35;;;11.43;;
64197;SDS011;50512;53.666;9.700;2024-02-21T07:54:02;40.15;;;9.02;;
64197;SDS011;50512;53.666;9.700;2024-02-21T07:56:29;47.92;;;9.98;;
64197;SDS011;50512;53.666;9.700;2024-02-21T07:58:56;46.28;;;8.90;;
64197;SDS011;50512;53.666;9.700;2024-02-21T08:01:22;40.15;;;8.43;;
64197;SDS011;50512;53.666;9.700;2024-02-21T08:03:49;44.42;;;8.25;;
64197;SDS011;50512;53.666;9.700;2024-02-21T08:06:16;37.33;;;8.65;;
64197;SDS011;50512;53.666;9.700;2024-02-21T08:08:43;36.30;;;7.22;;
64197;SDS011;50512;53.666;9.700;2024-02-21T08:11:09;33.38;;;8.07;;
64197;SDS011;50512;53.666;9.700;2024-02-21T08:13:36;28.98;;;7.70;;
64197;SDS011;50512;53.666;9.700;2024-02-21T08:16:02;37.60;;;6.78;;
64197;SDS011;50512;53.666;9.700;2024-02-21T08:18:29;38.45;;;7.43;;
64197;SDS011;50512;53.666;9.700;2024-02-21T08:20:55;36.63;;;7.55;;
64197;SDS011;50512;53.666;9.700;2024-02-21T08:23:24;38.00;;;6.80;;
64197;SDS011;50512;53.666;9.700;2024-02-21T08:25:50;42.15;;;7.78;;
64197;SDS011;50512;53.666;9.700;2024-02-21T08:28:17;33.80;;;5.75;;
64197;SDS011;50512;53.666;9.700;2024-02-21T08:30:43;35.90;;;8.77;;
64197;SDS011;50512;53.666;9.700;2024-02-21T08:33:12;35.25;;;6.57;;
64197;SDS011;50512;53.666;9.700;2024-02-21T08:35:39;32.85;;;6.55;;
64197;SDS011;50512;53.666;9.700;2024-02-21T08:38:05;34.42;;;7.78;;
64197;SDS011;50512;53.666;9.700;2024-02-21T08:40:33;35.58;;;7.13;;
64197;SDS011;50512;53.666;9.700;2024-02-21T08:43:00;32.78;;;7.25;;
64197;SDS011;50512;53.666;9.700;2024-02-21T08:45:26;39.90;;;7.57;;
64197;SDS011;50512;53.666;9.700;2024-02-21T08:47:53;36.45;;;6.82;;
64197;SDS011;50512;53.666;9.700;2024-02-21T08:50:19;32.08;;;6.45;;
64197;SDS011;50512;53.666;9.700;2024-02-21T08:52:46;37.45;;;6.25;;
64197;SDS011;50512;53.666;9.700;2024-02-21T08:55:12;40.30;;;6.47;;
64197;SDS011;50512;53.666;9.700;2024-02-21T08:57:40;29.08;;;6.93;;
64197;SDS011;50512;53.666;9.700;2024-02-21T09:00:07;38.33;;;8.85;;
64197;SDS011;50512;53.666;9.700;2024-02-21T09:02:36;33.50;;;5.90;;
64197;SDS011;50512;53.666;9.700;2024-02-21T09:05:03;40.80;;;7.38;;
64197;SDS011;50512;53.666;9.700;2024-02-21T09:07:31;39.08;;;7.70;;
64197;SDS011;50512;53.666;9.700;2024-02-21T09:09:57;50.42;;;10.20;;
64197;SDS011;50512;53.666;9.700;2024-02-21T09:12:24;33.58;;;7.53;;
64197;SDS011;50512;53.666;9.700;2024-02-21T09:14:52;27.05;;;8.40;;
64197;SDS011;50512;53.666;9.700;2024-02-21T09:17:18;40.63;;;8.35;;
64197;SDS011;50512;53.666;9.700;2024-02-21T09:19:45;32.08;;;7.72;;
64197;SDS011;50512;53.666;9.700;2024-02-21T09:22:12;31.42;;;8.05;;
64197;SDS011;50512;53.666;9.700;2024-02-21T09:24:38;41.40;;;8.00;;
64197;SDS011;50512;53.666;9.700;2024-02-21T09:27:04;31.20;;;7.40;;
64197;SDS011;50512;53.666;9.700;2024-02-21T09:29:31;39.13;;;7.30;;
64197;SDS011;50512;53.666;9.700;2024-02-21T09:32:00;26.67;;;6.97;;
64197;SDS011;50512;53.666;9.700;2024-02-21T09:34:27;33.58;;;8.35;;
64197;SDS011;50512;53.666;9.700;2024-02-21T09:36:54;35.13;;;7.93;;
64197;SDS011;50512;53.666;9.700;2024-02-21T09:39:20;29.80;;;7.28;;
64197;SDS011;50512;53.666;9.700;2024-02-21T09:41:47;32.40;;;7.72;;
64197;SDS011;50512;53.666;9.700;2024-02-21T09:44:18;28.40;;;9.73;;
64197;SDS011;50512;53.666;9.700;2024-02-21T09:46:48;28.38;;;7.07;;
64197;SDS011;50512;53.666;9.700;2024-02-21T09:49:26;32.97;;;6.97;;
64197;SDS011;50512;53.666;9.700;2024-02-21T09:51:57;31.65;;;7.35;;
64197;SDS011;50512;53.666;9.700;2024-02-21T09:54:26;24.70;;;8.23;;
64197;SDS011;50512;53.666;9.700;2024-02-21T09:56:54;31.08;;;8.25;;
64197;SDS011;50512;53.666;9.700;2024-02-21T09:59:21;21.88;;;6.97;;
64197;SDS011;50512;53.666;9.700;2024-02-21T10:01:50;30.90;;;8.25;;
64197;SDS011;50512;53.666;9.700;2024-02-21T10:04:16;32.30;;;9.35;;
64197;SDS011;50512;53.666;9.700;2024-02-21T10:06:45;30.17;;;8.88;;
64197;SDS011;50512;53.666;9.700;2024-02-21T10:09:19;27.20;;;10.32;;
64197;SDS011;50512;53.666;9.700;2024-02-21T10:11:47;41.00;;;7.85;;
64197;SDS011;50512;53.666;9.700;2024-02-21T10:14:13;28.27;;;7.90;;
64197;SDS011;50512;53.666;9.700;2024-02-21T10:16:41;27.15;;;7.05;;
64197;SDS011;50512;53.666;9.700;2024-02-21T10:19:15;19.58;;;7.25;;
64197;SDS011;50512;53.666;9.700;2024-02-21T10:21:42;27.60;;;6.57;;
64197;SDS011;50512;53.666;9.700;2024-02-21T10:24:11;22.17;;;6.60;;
64197;SDS011;50512;53.666;9.700;2024-02-21T10:26:38;26.77;;;7.75;;
64197;SDS011;50512;53.666;9.700;2024-02-21T10:29:04;26.95;;;8.40;;
64197;SDS011;50512;53.666;9.700;2024-02-21T10:31:31;33.60;;;7.70;;
64197;SDS011;50512;53.666;9.700;2024-02-21T10:33:58;18.33;;;5.60;;
64197;SDS011;50512;53.666;9.700;2024-02-21T10:36:28;30.02;;;8.40;;
64197;SDS011;50512;53.666;9.700;2024-02-21T10:38:54;33.70;;;9.32;;
64197;SDS011;50512;53.666;9.700;2024-02-21T10:41:23;40.22;;;10.65;;
64197;SDS011;50512;53.666;9.700;2024-02-21T10:43:51;44.97;;;13.88;;
64197;SDS011;50512;53.666;9.700;2024-02-21T10:46:20;44.70;;;13.82;;
64197;SDS011;50512;53.666;9.700;2024-02-21T10:48:48;35.83;;;11.90;;
64197;SDS011;50512;53.666;9.700;2024-02-21T10:51:27;43.13;;;13.50;;
64197;SDS011;50512;53.666;9.700;2024-02-21T10:54:02;45.13;;;12.68;;
64197;SDS011;50512;53.666;9.700;2024-02-21T10:56:40;54.65;;;15.63;;
64197;SDS011;50512;53.666;9.700;2024-02-21T10:59:08;55.63;;;16.80;;
64197;SDS011;50512;53.666;9.700;2024-02-21T11:01:34;51.85;;;17.02;;
64197;SDS011;50512;53.666;9.700;2024-02-21T11:04:02;53.33;;;15.95;;
64197;SDS011;50512;53.666;9.700;2024-02-21T11:06:30;59.88;;;15.80;;
64197;SDS011;50512;53.666;9.700;2024-02-21T11:08:59;55.47;;;15.13;;
64197;SDS011;50512;53.666;9.700;2024-02-21T11:11:27;63.10;;;16.50;;
64197;SDS011;50512;53.666;9.700;2024-02-21T11:14:04;60.78;;;18.38;;
64197;SDS011;50512;53.666;9.700;2024-02-21T11:16:35;61.90;;;16.85;;
64197;SDS011;50512;53.666;9.700;2024-02-21T11:19:04;61.70;;;19.30;;
64197;SDS011;50512;53.666;9.700;2024-02-21T11:21:32;62.97;;;16.45;;
64197;SDS011;50512;53.666;9.700;2024-02-21T11:23:59;67.85;;;20.40;;
64197;SDS011;50512;53.666;9.700;2024-02-21T11:26:27;76.55;;;22.40;;
64197;SDS011;50512;53.666;9.700;2024-02-21T11:28:57;69.13;;;22.73;;
64197;SDS011;50512;53.666;9.700;2024-02-21T11:31:26;84.95;;;21.10;;
64197;SDS011;50512;53.666;9.700;2024-02-21T11:33:53;55.05;;;19.52;;
64197;SDS011;50512;53.666;9.700;2024-02-21T11:36:24;75.68;;;23.08;;
64197;SDS011;50512;53.666;9.700;2024-02-21T11:38:51;78.90;;;24.00;;
64197;SDS011;50512;53.666;9.700;2024-02-21T11:41:18;84.18;;;26.75;;
64197;SDS011;50512;53.666;9.700;2024-02-21T11:43:45;91.45;;;26.40;;
64197;SDS011;50512;53.666;9.700;2024-02-21T11:46:12;97.40;;;28.38;;
64197;SDS011;50512;53.666;9.700;2024-02-21T11:48:41;84.18;;;26.13;;
64197;SDS011;50512;53.666;9.700;2024-02-21T11:51:09;83.32;;;26.50;;
64197;SDS011;50512;53.666;9.700;2024-02-21T11:53:36;78.30;;;25.48;;
64197;SDS011;50512;53.666;9.700;2024-02-21T11:56:03;87.30;;;26.95;;
64197;SDS011;50512;53.666;9.700;2024-02-21T11:58:29;80.93;;;24.17;;
64197;SDS011;50512;53.666;9.700;2024-02-21T12:00:56;84.32;;;24.48;;
64197;SDS011;50512;53.666;9.700;2024-02-21T12:03:23;74.50;;;22.80;;
64197;SDS011;50512;53.666;9.700;2024-02-21T12:05:51;77.30;;;23.67;;
64197;SDS011;50512;53.666;9.700;2024-02-21T12:08:21;63.80;;;18.67;;
64197;SDS011;50512;53.666;9.700;2024-02-21T12:10:48;68.72;;;22.08;;
64197;SDS011;50512;53.666;9.700;2024-02-21T12:13:16;70.93;;;19.35;;
64197;SDS011;50512;53.666;9.700;2024-02-21T12:15:47;65.28;;;20.88;;
64197;SDS011;50512;53.666;9.700;2024-02-21T12:18:13;66.82;;;20.10;;
64197;SDS011;50512;53.666;9.700;2024-02-21T12:20:40;67.68;;;22.70;;
64197;SDS011;50512;53.666;9.700;2024-02-21T12:23:10;72.32;;;20.45;;
64197;SDS011;50512;53.666;9.700;2024-02-21T12:25:36;63.28;;;19.75;;
64197;SDS011;50512;53.666;9.700;2024-02-21T12:28:04;64.35;;;21.40;;
64197;SDS011;50512;53.666;9.700;2024-02-21T12:30:32;61.03;;;20.60;;
64197;SDS011;50512;53.666;9.700;2024-02-21T12:33:00;69.78;;;23.17;;
64197;SDS011;50512;53.666;9.700;2024-02-21T12:35:27;71.63;;;21.50;;
64197;SDS011;50512;53.666;9.700;2024-02-21T12:37:53;71.57;;;20.60;;
64197;SDS011;50512;53.666;9.700;2024-02-21T12:40:21;68.20;;;21.45;;
64197;SDS011;50512;53.666;9.700;2024-02-21T12:42:47;72.28;;;20.15;;
64197;SDS011;50512;53.666;9.700;2024-02-21T12:45:14;71.28;;;20.92;;
64197;SDS011;50512;53.666;9.700;2024-02-21T12:47:41;69.13;;;20.80;;
64197;SDS011;50512;53.666;9.700;2024-02-21T12:50:08;68.47;;;20.38;;
64197;SDS011;50512;53.666;9.700;2024-02-21T12:52:34;80.47;;;21.55;;
64197;SDS011;50512;53.666;9.700;2024-02-21T12:55:01;70.30;;;20.70;;
64197;SDS011;50512;53.666;9.700;2024-02-21T12:57:29;59.33;;;18.95;;
64197;SDS011;50512;53.666;9.700;2024-02-21T12:59:55;74.45;;;21.95;;
64197;SDS011;50512;53.666;9.700;2024-02-21T13:02:22;66.70;;;20.20;;
64197;SDS011;50512;53.666;9.700;2024-02-21T13:04:48;78.80;;;23.05;;
64197;SDS011;50512;53.666;9.700;2024-02-21T13:07:15;72.88;;;20.40;;
64197;SDS011;50512;53.666;9.700;2024-02-21T13:09:41;45.97;;;15.38;;
64197;SDS011;50512;53.666;9.700;2024-02-21T13:12:08;67.32;;;20.50;;
64197;SDS011;50512;53.666;9.700;2024-02-21T13:14:36;65.03;;;20.02;;
64197;SDS011;50512;53.666;9.700;2024-02-21T13:17:04;67.30;;;19.35;;
64197;SDS011;50512;53.666;9.700;2024-02-21T13:19:30;76.68;;;22.50;;
64197;SDS011;50512;53.666;9.700;2024-02-21T13:21:57;67.00;;;22.60;;
64197;SDS011;50512;53.666;9.700;2024-02-21T13:24:23;70.07;;;20.65;;
64197;SDS011;50512;53.666;9.700;2024-02-21T13:26:50;70.82;;;24.48;;
64197;SDS011;50512;53.666;9.700;2024-02-21T13:29:16;62.15;;;20.45;;
64197;SDS011;50512;53.666;9.700;2024-02-21T13:31:44;63.75;;;19.50;;
64197;SDS011;50512;53.666;9.700;2024-02-21T13:34:10;57.78;;;19.55;;
64197;SDS011;50512;53.666;9.700;2024-02-21T13:36:37;65.43;;;20.08;;
64197;SDS011;50512;53.666;9.700;2024-02-21T13:39:03;66.32;;;21.92;;
64197;SDS011;50512;53.666;9.700;2024-02-21T13:41:30;60.55;;;18.95;;
64197;SDS011;50512;53.666;9.700;2024-02-21T13:43:58;58.75;;;19.15;;
64197;SDS011;50512;53.666;9.700;2024-02-21T13:46:25;62.38;;;20.20;;
64197;SDS011;50512;53.666;9.700;2024-02-21T13:48:54;71.03;;;19.27;;
64197;SDS011;50512;53.666;9.700;2024-02-21T13:51:29;66.90;;;21.60;;
64197;SDS011;50512;53.666;9.700;2024-02-21T13:53:56;62.53;;;17.70;;
64197;SDS011;50512;53.666;9.700;2024-02-21T13:56:22;57.78;;;17.50;;
64197;SDS011;50512;53.666;9.700;2024-02-21T13:58:48;60.42;;;18.13;;
64197;SDS011;50512;53.666;9.700;2024-02-21T14:01:15;60.47;;;21.00;;
64197;SDS011;50512;53.666;9.700;2024-02-21T14:03:42;56.08;;;17.80;;
64197;SDS011;50512;53.666;9.700;2024-02-21T14:06:09;61.72;;;19.13;;
64197;SDS011;50512;53.666;9.700;2024-02-21T14:08:37;59.33;;;19.05;;
64197;SDS011;50512;53.666;9.700;2024-02-21T14:11:04;61.13;;;19.65;;
64197;SDS011;50512;53.666;9.700;2024-02-21T14:13:31;60.33;;;18.23;;
64197;SDS011;50512;53.666;9.700;2024-02-21T14:15:58;55.92;;;19.52;;
64197;SDS011;50512;53.666;9.700;2024-02-21T14:18:24;56.45;;;18.35;;
64197;SDS011;50512;53.666;9.700;2024-02-21T14:20:50;44.53;;;16.13;;